createdAt,value
2022-12-28T00:02:24.060Z,5.13
2022-12-28T00:04:52.405Z,5.08
2022-12-28T00:07:20.772Z,5.17
2022-12-28T00:09:50.482Z,5.16
2022-12-28T00:12:18.879Z,5.17
2022-12-28T00:14:47.641Z,5.18
2022-12-28T00:17:16.046Z,5.22
2022-12-28T00:19:44.383Z,5.26
2022-12-28T00:22:12.784Z,5.29
2022-12-28T00:24:41.162Z,5.31
2022-12-28T00:27:11.047Z,5.37
2022-12-28T00:29:39.402Z,5.40
2022-12-28T00:32:07.811Z,5.41
2022-12-28T00:34:36.200Z,5.36
2022-12-28T00:37:11.093Z,5.46
2022-12-28T00:39:42.238Z,5.48
2022-12-28T00:42:12.273Z,5.47
2022-12-28T00:44:40.761Z,5.46
2022-12-28T00:47:09.134Z,5.43
2022-12-28T00:49:37.489Z,5.30
2022-12-28T00:52:06.238Z,5.20
2022-12-28T00:54:34.609Z,5.21
2022-12-28T00:57:02.954Z,5.18
2022-12-28T00:59:32.700Z,5.14
2022-12-28T01:02:01.223Z,5.14
2022-12-28T01:04:29.822Z,5.07
2022-12-28T01:06:58.218Z,5.10
2022-12-28T01:09:26.578Z,5.07
2022-12-28T01:11:54.887Z,5.07
2022-12-28T01:14:23.238Z,5.09
2022-12-28T01:16:53.191Z,5.05
2022-12-28T01:19:23.436Z,4.96
2022-12-28T01:21:52.645Z,5.04
2022-12-28T01:24:21.155Z,4.99
2022-12-28T01:26:49.509Z,5.03
2022-12-28T01:29:18.519Z,5.03
2022-12-28T01:31:46.947Z,5.01
2022-12-28T01:34:16.722Z,4.97
2022-12-28T01:36:45.050Z,4.94
2022-12-28T01:39:13.473Z,5.02
2022-12-28T01:41:43.298Z,4.94
2022-12-28T01:44:40.853Z,4.92
2022-12-28T01:47:13.207Z,4.82
2022-12-28T01:49:47.720Z,4.87
2022-12-28T01:52:21.990Z,4.83
2022-12-28T01:54:53.508Z,4.79
2022-12-28T01:57:26.944Z,4.87
2022-12-28T02:00:00.271Z,4.90
2022-12-28T02:02:30.869Z,4.90
2022-12-28T02:05:01.844Z,4.86
2022-12-28T02:07:45.369Z,4.86
2022-12-28T02:10:43.136Z,4.90
2022-12-28T02:13:04.539Z,4.99
2022-12-28T02:15:33.210Z,4.91
2022-12-28T02:18:02.011Z,4.95
2022-12-28T02:20:41.189Z,5.04
2022-12-28T02:23:38.955Z,5.06
2022-12-28T02:26:34.054Z,5.10
2022-12-28T02:29:49.063Z,5.21
2022-12-28T02:32:37.437Z,5.27
2022-12-28T02:35:09.684Z,5.35
2022-12-28T02:37:45.759Z,5.37
2022-12-28T02:40:18.506Z,5.55
2022-12-28T02:42:47.554Z,5.65
2022-12-28T02:45:51.346Z,5.71
2022-12-28T02:48:38.445Z,5.76
2022-12-28T02:51:21.015Z,5.78
2022-12-28T02:54:05.746Z,5.90
2022-12-28T02:56:43.138Z,5.91
2022-12-28T02:59:35.751Z,5.94
2022-12-28T03:02:20.074Z,5.96
2022-12-28T03:05:01.331Z,6.02
2022-12-28T03:07:56.496Z,6.07
2022-12-28T03:10:29.832Z,6.07
2022-12-28T03:13:04.263Z,6.17
2022-12-28T03:15:37.590Z,6.25
2022-12-28T03:18:26.416Z,6.24
2022-12-28T03:21:15.295Z,6.17
2022-12-28T03:24:03.644Z,6.04
2022-12-28T03:26:52.065Z,5.96
2022-12-28T03:29:41.182Z,5.86
2022-12-28T03:32:10.395Z,5.79
2022-12-28T03:34:40.340Z,5.72
2022-12-28T03:37:14.346Z,5.62
2022-12-28T03:39:48.349Z,5.59
2022-12-28T03:42:37.531Z,5.53
2022-12-28T03:45:14.442Z,5.50
2022-12-28T03:48:04.741Z,5.51
2022-12-28T03:50:37.852Z,5.49
2022-12-28T03:53:06.542Z,5.49
2022-12-28T03:55:35.646Z,5.50
2022-12-28T03:58:04.053Z,5.51
2022-12-28T04:00:33.288Z,5.50
2022-12-28T04:03:01.681Z,5.45
2022-12-28T04:05:30.243Z,5.49
2022-12-28T04:07:59.909Z,5.47
2022-12-28T04:10:28.209Z,5.49
2022-12-28T04:12:57.525Z,5.49
2022-12-28T04:15:25.866Z,5.46
2022-12-28T04:17:54.337Z,5.55
2022-12-28T04:20:22.775Z,5.55
2022-12-28T04:22:51.095Z,5.55
2022-12-28T04:25:20.863Z,5.52
2022-12-28T04:27:49.207Z,5.54
2022-12-28T04:30:17.753Z,5.61
2022-12-28T04:32:46.074Z,5.62
2022-12-28T04:35:14.427Z,5.56
2022-12-28T04:37:42.779Z,5.61
2022-12-28T04:40:12.021Z,5.57
2022-12-28T04:42:41.832Z,5.59
2022-12-28T04:45:11.040Z,5.54
2022-12-28T04:47:39.390Z,5.56
2022-12-28T04:50:08.128Z,5.57
2022-12-28T04:52:36.443Z,5.58
2022-12-28T04:55:05.550Z,5.60
2022-12-28T04:57:33.844Z,5.61
2022-12-28T05:00:03.594Z,5.55
2022-12-28T05:02:32.581Z,5.57
2022-12-28T05:05:00.986Z,5.56
2022-12-28T05:07:29.791Z,5.55
2022-12-28T05:09:58.267Z,5.56
2022-12-28T05:12:26.797Z,5.56
2022-12-28T05:14:55.094Z,5.57
2022-12-28T05:17:24.773Z,5.60
2022-12-28T05:19:53.218Z,5.64
2022-12-28T05:22:21.682Z,5.62
2022-12-28T05:24:50.033Z,5.62
2022-12-28T05:27:18.436Z,5.63
2022-12-28T05:29:46.710Z,5.66
2022-12-28T05:32:15.184Z,5.65
2022-12-28T05:34:45.212Z,5.67
2022-12-28T05:37:20.125Z,5.65
2022-12-28T05:39:50.324Z,5.66
2022-12-28T05:42:18.654Z,5.66
2022-12-28T05:44:47.216Z,5.67
2022-12-28T05:47:15.518Z,5.67
2022-12-28T05:49:45.210Z,5.69
2022-12-28T05:52:13.682Z,5.74
2022-12-28T05:54:41.973Z,5.72
2022-12-28T05:57:10.315Z,5.72
2022-12-28T05:59:38.670Z,5.77
2022-12-28T06:02:07.029Z,5.72
2022-12-28T06:04:35.535Z,5.73
2022-12-28T06:07:05.237Z,5.78
2022-12-28T06:09:34.058Z,5.74
2022-12-28T06:12:04.692Z,5.72
2022-12-28T06:14:33.040Z,5.77
2022-12-28T06:17:01.546Z,5.77
2022-12-28T06:19:29.870Z,5.79
2022-12-28T06:21:58.444Z,5.82
2022-12-28T06:24:28.104Z,5.85
2022-12-28T06:26:56.439Z,5.84
2022-12-28T06:29:24.869Z,5.85
2022-12-28T06:31:54.664Z,5.86
2022-12-28T06:34:23.081Z,5.93
2022-12-28T06:36:52.476Z,5.93
2022-12-28T06:39:20.789Z,5.89
2022-12-28T06:41:50.638Z,5.91
2022-12-28T06:44:18.930Z,5.96
2022-12-28T06:46:47.282Z,5.99
2022-12-28T06:49:15.577Z,6.03
2022-12-28T06:51:43.888Z,6.07
2022-12-28T06:54:12.437Z,6.10
2022-12-28T06:56:41.385Z,6.11
2022-12-28T06:59:11.622Z,6.21
2022-12-28T07:01:44.386Z,6.19
2022-12-28T07:04:13.589Z,6.23
2022-12-28T07:06:44.027Z,6.26
2022-12-28T07:09:15.142Z,6.31
2022-12-28T07:11:44.287Z,6.30
2022-12-28T07:14:13.973Z,6.36
2022-12-28T07:16:44.472Z,6.39
2022-12-28T07:19:12.912Z,6.40
2022-12-28T07:21:41.581Z,6.46
2022-12-28T07:24:10.378Z,6.43
2022-12-28T07:26:39.226Z,6.45
2022-12-28T07:29:09.455Z,6.50
2022-12-28T07:31:45.125Z,6.53
2022-12-28T07:34:15.966Z,6.52
2022-12-28T07:36:44.742Z,6.49
2022-12-28T07:39:13.233Z,6.55
2022-12-28T07:41:41.820Z,6.55
2022-12-28T07:44:10.324Z,6.56
2022-12-28T07:46:40.194Z,6.57
2022-12-28T07:49:08.766Z,6.62
2022-12-28T07:51:39.405Z,6.61
2022-12-28T07:54:08.411Z,6.59
2022-12-28T07:59:06.440Z,6.66
2022-12-28T08:01:37.202Z,6.66
2022-12-28T08:04:10.064Z,6.71
2022-12-28T08:06:40.500Z,6.66
2022-12-28T08:09:10.919Z,6.69
2022-12-28T08:11:41.520Z,6.71
2022-12-28T08:14:10.542Z,6.72
2022-12-28T08:16:41.014Z,6.76
2022-12-28T08:19:11.593Z,6.76
2022-12-28T08:21:41.531Z,6.80
2022-12-28T08:24:13.756Z,6.82
2022-12-28T08:26:43.751Z,6.83
2022-12-28T08:29:14.829Z,6.84
2022-12-28T08:31:45.941Z,6.82
2022-12-28T08:34:18.856Z,6.82
2022-12-28T08:36:47.893Z,6.85
2022-12-28T08:39:16.437Z,6.83
2022-12-28T08:41:44.950Z,6.86
2022-12-28T08:44:13.395Z,6.91
2022-12-28T08:46:41.889Z,6.87
2022-12-28T08:49:10.612Z,6.96
2022-12-28T08:51:42.709Z,6.93
2022-12-28T08:54:13.550Z,6.90
2022-12-28T08:56:45.004Z,6.98
2022-12-28T08:59:16.088Z,6.96
2022-12-28T09:01:45.860Z,6.90
2022-12-28T09:04:16.294Z,6.96
2022-12-28T09:06:46.509Z,7.00
2022-12-28T09:09:16.519Z,7.03
2022-12-28T09:11:45.643Z,7.06
2022-12-28T09:14:24.446Z,7.10
2022-12-28T09:16:54.215Z,7.12
2022-12-28T09:19:23.452Z,7.12
2022-12-28T09:21:55.150Z,7.09
2022-12-28T09:24:24.068Z,7.12
2022-12-28T09:26:54.467Z,7.15
2022-12-28T09:29:23.019Z,7.16
2022-12-28T09:31:51.417Z,7.17
2022-12-28T09:34:37.357Z,7.16
2022-12-28T09:37:08.568Z,7.24
2022-12-28T09:39:37.334Z,7.22
2022-12-28T09:42:11.887Z,7.26
2022-12-28T09:44:48.629Z,7.26
2022-12-28T09:47:26.288Z,7.31
2022-12-28T09:50:07.202Z,7.28
2022-12-28T09:52:49.556Z,7.28
2022-12-28T09:55:19.861Z,7.35
2022-12-28T09:57:51.506Z,7.38
2022-12-28T10:00:22.582Z,7.43
2022-12-28T10:02:55.395Z,7.48
2022-12-28T10:05:24.405Z,7.50
2022-12-28T10:07:55.508Z,7.52
2022-12-28T10:10:25.067Z,7.59
2022-12-28T10:12:53.946Z,7.65
2022-12-28T10:15:24.070Z,7.66
2022-12-28T10:17:52.417Z,7.73
2022-12-28T10:20:23.038Z,7.82
2022-12-28T10:22:56.097Z,7.83
2022-12-28T10:25:26.137Z,7.95
2022-12-28T10:27:55.497Z,7.96
2022-12-28T10:30:26.997Z,8.02
2022-12-28T10:33:02.480Z,8.06
2022-12-28T10:35:39.125Z,8.08
2022-12-28T10:38:22.250Z,8.14
2022-12-28T10:41:00.470Z,8.22
2022-12-28T10:43:31.102Z,8.22
2022-12-28T10:46:04.517Z,8.30
2022-12-28T10:48:40.396Z,8.28
2022-12-28T10:51:14.593Z,8.35
2022-12-28T10:53:46.510Z,8.30
2022-12-28T10:56:26.175Z,8.47
2022-12-28T10:58:56.698Z,8.41
2022-12-28T11:01:27.792Z,8.42
2022-12-28T11:04:01.901Z,8.54
2022-12-28T11:06:31.600Z,8.60
2022-12-28T11:09:16.871Z,8.61
2022-12-28T11:11:47.568Z,8.62
2022-12-28T11:14:30.512Z,8.70
2022-12-28T11:16:59.373Z,8.71
2022-12-28T11:19:27.762Z,8.79
2022-12-28T11:21:56.380Z,8.83
2022-12-28T11:24:28.082Z,8.95
2022-12-28T11:26:58.928Z,8.97
2022-12-28T11:29:28.098Z,9.03
2022-12-28T11:32:02.598Z,9.07
2022-12-28T11:34:32.658Z,9.16
2022-12-28T11:37:01.408Z,9.18
2022-12-28T11:39:48.440Z,9.09
2022-12-28T11:42:50.410Z,9.15
2022-12-28T11:45:54.986Z,9.19
2022-12-28T11:48:46.292Z,9.16
2022-12-28T11:51:17.903Z,9.24
2022-12-28T11:53:54.887Z,9.24
2022-12-28T11:56:26.136Z,9.29
2022-12-28T11:59:22.909Z,9.31
2022-12-28T12:01:59.549Z,9.30
2022-12-28T12:04:41.313Z,9.32
2022-12-28T12:07:43.492Z,9.28
2022-12-28T12:10:28.946Z,9.27
2022-12-28T12:13:02.813Z,9.13
2022-12-28T12:15:41.691Z,8.93
2022-12-28T12:18:20.930Z,8.75
2022-12-28T12:21:03.221Z,8.56
2022-12-28T12:23:42.438Z,8.42
2022-12-28T12:26:22.111Z,8.35
2022-12-28T12:28:55.438Z,8.32
2022-12-28T12:31:30.554Z,8.27
2022-12-28T12:34:07.428Z,8.22
2022-12-28T12:37:13.192Z,8.17
2022-12-28T12:40:05.060Z,8.13
2022-12-28T12:42:49.935Z,8.09
2022-12-28T12:45:29.177Z,8.10
2022-12-28T12:48:14.008Z,8.07
2022-12-28T12:51:03.438Z,8.05
2022-12-28T12:53:51.835Z,7.96
2022-12-28T12:56:37.048Z,8.01
2022-12-28T12:59:23.385Z,7.98
2022-12-28T13:01:59.608Z,7.98
2022-12-28T13:04:33.362Z,8.06
2022-12-28T13:07:06.572Z,8.07
2022-12-28T13:09:37.258Z,8.02
2022-12-28T13:12:15.520Z,8.02
2022-12-28T13:14:45.539Z,8.02
2022-12-28T13:17:20.031Z,7.91
2022-12-28T13:19:49.068Z,7.89
2022-12-28T13:22:28.706Z,7.91
2022-12-28T13:24:59.809Z,7.85
2022-12-28T13:27:34.569Z,7.84
2022-12-28T13:30:04.188Z,7.80
2022-12-28T13:32:38.559Z,7.72
2022-12-28T13:35:18.702Z,7.69
2022-12-28T13:38:00.318Z,7.68
2022-12-28T13:40:30.530Z,7.66
2022-12-28T13:43:18.794Z,7.64
2022-12-28T13:45:52.921Z,7.67
2022-12-28T13:48:23.833Z,7.63
2022-12-28T13:50:53.406Z,7.61
2022-12-28T13:53:26.442Z,7.65
2022-12-28T13:55:58.282Z,7.61
2022-12-28T13:58:32.996Z,7.61
2022-12-28T14:01:08.295Z,7.61
2022-12-28T14:03:44.615Z,7.65
2022-12-28T14:06:17.295Z,7.62
2022-12-28T14:08:46.536Z,7.63
2022-12-28T14:11:15.345Z,7.66
2022-12-28T14:13:44.021Z,7.67
2022-12-28T14:16:13.065Z,7.75
2022-12-28T14:18:43.773Z,7.82
2022-12-28T14:21:12.717Z,7.83
2022-12-28T14:23:41.482Z,7.92
2022-12-28T14:26:11.799Z,7.96
2022-12-28T14:28:47.851Z,7.99
2022-12-28T14:31:27.849Z,8.11
2022-12-28T14:34:00.141Z,8.14
2022-12-28T14:36:32.148Z,8.20
2022-12-28T14:39:05.228Z,8.18
2022-12-28T14:41:37.329Z,8.19
2022-12-28T14:44:14.184Z,8.25
2022-12-28T14:46:43.816Z,8.18
2022-12-28T14:49:37.544Z,8.21
2022-12-28T14:52:34.834Z,8.22
2022-12-28T14:55:34.123Z,8.26
2022-12-28T14:58:15.393Z,8.32
2022-12-28T15:00:57.869Z,8.33
2022-12-28T15:03:29.245Z,8.37
2022-12-28T15:06:02.443Z,8.35
2022-12-28T15:08:31.345Z,8.20
2022-12-28T15:11:01.268Z,8.19
2022-12-28T15:13:29.902Z,8.19
2022-12-28T15:16:01.141Z,8.16
2022-12-28T15:18:31.052Z,8.20
2022-12-28T15:21:04.885Z,8.18
2022-12-28T15:23:33.767Z,8.21
2022-12-28T15:26:07.300Z,8.20
2022-12-28T15:28:36.082Z,8.22
2022-12-28T15:31:07.037Z,8.30
2022-12-28T15:33:36.108Z,8.29
2022-12-28T15:36:13.508Z,8.38
2022-12-28T15:38:45.993Z,8.41
2022-12-28T15:41:34.239Z,8.43
2022-12-28T15:44:03.048Z,8.38
2022-12-28T15:46:31.639Z,8.45
2022-12-28T15:49:02.958Z,8.52
2022-12-28T15:51:32.880Z,8.57
2022-12-28T15:54:01.594Z,8.61
2022-12-28T15:56:32.422Z,8.63
2022-12-28T15:59:02.712Z,8.58
2022-12-28T16:01:32.708Z,8.61
2022-12-28T16:04:03.349Z,8.60
2022-12-28T16:06:40.040Z,8.66
2022-12-28T16:09:12.826Z,8.63
2022-12-28T16:11:42.871Z,8.81
2022-12-28T16:14:15.262Z,8.79
2022-12-28T16:16:44.704Z,8.74
2022-12-28T16:19:14.683Z,8.90
2022-12-28T16:21:44.909Z,8.91
2022-12-28T16:24:13.712Z,8.89
2022-12-28T16:26:42.172Z,8.96
2022-12-28T16:29:10.760Z,8.97
2022-12-28T16:31:41.066Z,8.97
2022-12-28T16:34:12.707Z,9.00
2022-12-28T16:36:41.621Z,9.03
2022-12-28T16:39:14.714Z,8.99
2022-12-28T16:41:43.670Z,8.97
2022-12-28T16:44:15.277Z,8.99
2022-12-28T16:46:44.200Z,8.98
2022-12-28T16:49:13.252Z,8.97
2022-12-28T16:51:43.806Z,9.00
2022-12-28T16:54:16.399Z,9.04
2022-12-28T16:56:45.583Z,9.06
2022-12-28T16:59:16.291Z,9.09
2022-12-28T17:01:45.534Z,9.14
2022-12-28T17:04:14.209Z,9.09
2022-12-28T17:06:44.420Z,9.05
2022-12-28T17:09:14.935Z,9.04
2022-12-28T17:11:43.742Z,8.99
2022-12-28T17:14:13.066Z,9.00
2022-12-28T17:16:41.850Z,9.00
2022-12-28T17:19:10.375Z,8.98
2022-12-28T17:21:39.429Z,8.87
2022-12-28T17:24:08.490Z,8.79
2022-12-28T17:26:38.546Z,8.71
2022-12-28T17:29:07.317Z,8.59
2022-12-28T17:31:36.018Z,8.50
2022-12-28T17:34:05.198Z,8.38
2022-12-28T17:36:34.044Z,8.29
2022-12-28T17:39:02.512Z,8.25
2022-12-28T17:41:31.074Z,8.16
2022-12-28T17:44:02.129Z,8.12
2022-12-28T17:46:32.863Z,8.08
2022-12-28T17:49:01.603Z,8.05
2022-12-28T17:51:30.115Z,7.96
2022-12-28T17:53:58.671Z,7.89
2022-12-28T17:56:27.779Z,7.87
2022-12-28T17:58:58.464Z,7.77
2022-12-28T18:01:28.989Z,7.68
2022-12-28T18:03:58.487Z,7.65
2022-12-28T18:06:27.212Z,7.62
2022-12-28T18:08:55.692Z,7.55
2022-12-28T18:11:24.354Z,7.45
2022-12-28T18:13:56.035Z,7.42
2022-12-28T18:16:24.657Z,7.50
2022-12-28T18:18:54.848Z,7.41
2022-12-28T18:21:26.875Z,7.31
2022-12-28T18:23:55.355Z,7.36
2022-12-28T18:26:26.097Z,7.37
2022-12-28T18:28:55.109Z,7.31
2022-12-28T18:31:25.025Z,7.35
2022-12-28T18:33:55.098Z,7.40
2022-12-28T18:36:24.212Z,7.36
2022-12-28T18:38:52.739Z,7.35
2022-12-28T18:41:22.373Z,7.32
2022-12-28T18:43:52.190Z,7.35
2022-12-28T18:46:20.873Z,7.30
2022-12-28T18:48:49.550Z,7.22
2022-12-28T18:51:19.611Z,7.30
2022-12-28T18:53:50.041Z,7.27
2022-12-28T18:56:20.316Z,7.30
2022-12-28T18:58:52.879Z,7.19
2022-12-28T19:02:04.791Z,7.27
2022-12-28T19:04:12.863Z,7.24
2022-12-28T19:06:43.851Z,7.18
2022-12-28T19:09:13.201Z,7.21
2022-12-28T19:11:42.064Z,7.18
2022-12-28T19:14:15.027Z,7.17
2022-12-28T19:16:44.967Z,7.13
2022-12-28T19:19:16.819Z,7.09
2022-12-28T19:21:46.815Z,7.14
2022-12-28T19:24:16.975Z,7.13
2022-12-28T19:26:46.661Z,7.07
2022-12-28T19:29:16.592Z,7.10
2022-12-28T19:31:45.471Z,7.08
2022-12-28T19:34:15.696Z,7.08
2022-12-28T19:36:44.163Z,7.12
2022-12-28T19:39:14.034Z,7.13
2022-12-28T19:41:42.614Z,7.10
2022-12-28T19:44:11.086Z,7.10
2022-12-28T19:46:39.694Z,7.11
2022-12-28T19:49:08.227Z,7.08
2022-12-28T19:51:36.858Z,7.12
2022-12-28T19:54:05.433Z,7.09
2022-12-28T19:56:35.311Z,7.14
2022-12-28T19:59:06.970Z,7.14
2022-12-28T20:01:39.021Z,7.18
2022-12-28T20:04:13.352Z,7.19
2022-12-28T20:06:44.290Z,7.16
2022-12-28T20:09:14.062Z,7.19
2022-12-28T20:11:44.926Z,7.21
2022-12-28T20:14:19.185Z,7.23
2022-12-28T20:16:52.316Z,7.26
2022-12-28T20:19:20.772Z,7.30
2022-12-28T20:21:50.509Z,7.30
2022-12-28T20:24:21.789Z,7.35
2022-12-28T20:26:56.395Z,7.35
2022-12-28T20:29:28.471Z,7.38
2022-12-28T20:31:57.290Z,7.41
2022-12-28T20:34:26.181Z,7.48
2022-12-28T20:36:54.634Z,7.49
2022-12-28T20:39:23.128Z,7.47
2022-12-28T20:42:10.420Z,7.49
2022-12-28T20:44:39.401Z,7.52
2022-12-28T20:47:07.940Z,7.55
2022-12-28T20:49:37.103Z,7.62
2022-12-28T20:52:05.682Z,7.65
2022-12-28T20:54:34.380Z,7.71
2022-12-28T20:57:04.515Z,7.73
2022-12-28T20:59:33.863Z,7.76
2022-12-28T21:02:02.441Z,7.79
2022-12-28T21:04:31.226Z,7.84
2022-12-28T21:06:59.686Z,7.88
2022-12-28T21:09:28.302Z,7.91
2022-12-28T21:11:56.825Z,7.98
2022-12-28T21:14:26.721Z,8.04
2022-12-28T21:16:55.230Z,8.07
2022-12-28T21:19:23.920Z,8.05
2022-12-28T21:21:52.451Z,8.09
2022-12-28T21:24:20.938Z,8.06
2022-12-28T21:26:49.403Z,8.08
2022-12-28T21:29:23.858Z,8.13
2022-12-28T21:31:56.514Z,8.09
2022-12-28T21:34:27.725Z,8.15
2022-12-28T21:37:17.680Z,8.18
2022-12-28T21:39:46.526Z,8.18
2022-12-28T21:42:15.239Z,8.17
2022-12-28T21:44:43.684Z,8.20
2022-12-28T21:47:13.903Z,8.25
2022-12-28T21:49:43.929Z,8.29
2022-12-28T21:52:13.368Z,8.34
2022-12-28T21:54:45.326Z,8.40
2022-12-28T21:57:14.560Z,8.51
2022-12-28T21:59:43.631Z,8.44
2022-12-28T22:02:34.204Z,8.43
2022-12-28T22:05:18.085Z,8.52
2022-12-28T22:07:47.654Z,8.53
2022-12-28T22:10:33.993Z,8.56
2022-12-28T22:13:02.973Z,8.66
2022-12-28T22:15:49.303Z,8.77
2022-12-28T22:18:52.749Z,8.75
2022-12-28T22:21:11.722Z,8.78
2022-12-28T22:23:41.535Z,8.81
2022-12-28T22:26:14.333Z,8.83
2022-12-28T22:28:43.005Z,8.84
2022-12-28T22:31:11.430Z,8.86
2022-12-28T22:33:41.227Z,8.84
2022-12-28T22:36:11.258Z,8.76
2022-12-28T22:38:39.941Z,8.68
2022-12-28T22:41:08.873Z,8.71
2022-12-28T22:43:38.327Z,8.67
2022-12-28T22:46:09.060Z,8.65
2022-12-28T22:48:37.940Z,8.63
2022-12-28T22:51:11.643Z,8.62
2022-12-28T22:53:40.815Z,8.67
2022-12-28T22:56:12.994Z,8.63
2022-12-28T22:58:41.687Z,8.60
2022-12-28T23:01:13.240Z,8.65
2022-12-28T23:03:44.370Z,8.65
2022-12-28T23:06:16.530Z,8.60
2022-12-28T23:08:45.883Z,8.60
2022-12-28T23:11:39.441Z,8.64
2022-12-28T23:14:30.263Z,8.67
2022-12-28T23:17:00.183Z,8.68
2022-12-28T23:19:46.955Z,8.71
2022-12-28T23:22:36.321Z,8.72
2022-12-28T23:25:24.033Z,8.75
2022-12-28T23:27:52.821Z,8.73
2022-12-28T23:30:23.036Z,8.79
2022-12-28T23:32:52.632Z,8.80
2022-12-28T23:35:22.610Z,8.85
2022-12-28T23:37:52.844Z,8.91
2022-12-28T23:40:23.260Z,8.91
2022-12-28T23:42:54.000Z,9.02
2022-12-28T23:45:22.808Z,9.05
2022-12-28T23:47:53.669Z,9.09
2022-12-28T23:50:22.627Z,9.14
2022-12-28T23:52:52.435Z,9.26
2022-12-28T23:55:20.829Z,9.28
2022-12-28T23:57:49.298Z,9.32
